Time;durP1;ratioP1;P1;durP2;ratioP2;P2;SDS_P1;SDS_P2;PMS_P1;PMS_P2;Temp;Humidity;BMP_temperature;BMP_pressure;BME280_temperature;BME280_humidity;BME280_pressure;Samples;Min_cycle;Max_cycle;Signal;HPM_P1;HPM_P2
2022/08/15 00:00:43;;;;;;;11.27;7.57;;;21.90;99.90;;;;;;4935311;28;20039;-86
2022/08/15 00:03:31;;;;;;;14.70;7.97;;;21.90;99.90;;;;;;4953718;28;20057;-86
2022/08/15 00:06:00;;;;;;;11.50;7.70;;;21.90;99.90;;;;;;4972002;28;20042;-86
2022/08/15 00:08:28;;;;;;;14.30;7.75;;;21.80;99.90;;;;;;4972424;28;20294;-86
2022/08/15 00:11:16;;;;;;;13.27;7.82;;;21.80;99.90;;;;;;4954973;28;20110;-86
2022/08/15 00:13:44;;;;;;;11.88;7.63;;;21.80;99.90;;;;;;4968407;28;20047;-86
2022/08/15 00:16:11;;;;;;;13.50;7.85;;;21.70;99.90;;;;;;4952765;28;20039;-86
2022/08/15 00:18:37;;;;;;;13.80;8.07;;;21.70;99.90;;;;;;4987255;28;20050;-86
2022/08/15 00:21:04;;;;;;;15.05;7.90;;;21.70;99.90;;;;;;4949092;28;20074;-86
2022/08/15 00:23:30;;;;;;;12.60;8.20;;;21.60;99.90;;;;;;4966951;28;20564;-86
2022/08/15 00:25:58;;;;;;;11.50;7.80;;;21.60;99.90;;;;;;4951524;28;20121;-86
2022/08/15 00:28:26;;;;;;;11.77;7.65;;;21.60;99.90;;;;;;4951447;28;20046;-86
2022/08/15 00:30:53;;;;;;;15.73;8.30;;;21.60;99.90;;;;;;4968574;28;20515;-86
2022/08/15 00:33:20;;;;;;;13.50;8.45;;;22.00;99.90;;;;;;4968234;28;20062;-88
2022/08/15 00:35:49;;;;;;;12.90;8.70;;;21.60;99.90;;;;;;4945440;28;20126;-86
2022/08/15 00:38:20;;;;;;;13.88;8.90;;;21.60;99.90;;;;;;4951952;28;20031;-86
2022/08/15 00:43:43;;;;;;;13.02;8.15;;;21.50;99.90;;;;;;4959015;28;20523;-87
2022/08/15 00:46:12;;;;;;;14.18;8.93;;;21.50;99.90;;;;;;4966620;28;20055;-87
2022/08/15 00:48:44;;;;;;;12.57;8.70;;;21.50;99.90;;;;;;4962846;28;20047;-87
2022/08/15 00:51:15;;;;;;;12.98;8.98;;;21.50;99.90;;;;;;4965514;28;20039;-87
2022/08/15 00:53:45;;;;;;;16.93;8.67;;;21.40;99.90;;;;;;4983723;28;20038;-87
2022/08/15 00:56:12;;;;;;;13.18;8.38;;;21.40;99.90;;;;;;4963307;28;20107;-87
2022/08/15 00:58:40;;;;;;;15.48;9.18;;;21.40;99.90;;;;;;4956914;28;20050;-87
2022/08/15 01:01:08;;;;;;;13.48;8.52;;;21.30;99.90;;;;;;4969383;28;20043;-86
2022/08/15 01:03:37;;;;;;;13.20;9.38;;;21.30;99.90;;;;;;4954440;28;20522;-86
2022/08/15 01:06:04;;;;;;;13.32;9.30;;;21.30;99.90;;;;;;4954133;28;20480;-86
2022/08/15 01:08:36;;;;;;;13.75;8.75;;;21.20;99.90;;;;;;4969468;28;20046;-87
2022/08/15 01:11:07;;;;;;;14.73;9.10;;;21.20;99.90;;;;;;4967646;28;20043;-87
2022/08/15 01:13:33;;;;;;;12.73;8.90;;;21.20;99.90;;;;;;4965444;28;20046;-87
2022/08/15 01:15:59;;;;;;;13.63;9.32;;;21.10;99.90;;;;;;4966962;28;20047;-87
2022/08/15 01:18:25;;;;;;;15.30;9.50;;;21.10;99.90;;;;;;4948770;28;20049;-87
2022/08/15 01:20:54;;;;;;;13.95;9.20;;;21.10;99.90;;;;;;4970513;28;20398;-87
2022/08/15 01:23:40;;;;;;;15.15;9.38;;;21.00;99.90;;;;;;4970282;28;20039;-86
2022/08/15 01:26:07;;;;;;;14.52;9.30;;;21.00;99.90;;;;;;4947237;28;20039;-86
2022/08/15 01:28:35;;;;;;;13.35;9.00;;;21.00;99.90;;;;;;4951129;28;20032;-87
2022/08/15 01:31:09;;;;;;;14.50;9.82;;;20.90;99.90;;;;;;4954240;28;20427;-86
2022/08/15 01:33:39;;;;;;;13.68;9.65;;;20.90;99.90;;;;;;4957312;28;20046;-87
2022/08/15 01:36:05;;;;;;;14.45;9.50;;;20.90;99.90;;;;;;4966607;28;20070;-87
2022/08/15 01:38:40;;;;;;;14.85;10.00;;;20.80;99.90;;;;;;4950961;28;20035;-86
2022/08/15 01:41:50;;;;;;;13.77;10.30;;;20.80;99.90;;;;;;4964864;28;20050;-86
2022/08/15 01:44:32;;;;;;;14.65;10.25;;;20.80;99.90;;;;;;4925616;28;20050;-87
2022/08/15 01:47:25;;;;;;;16.13;10.45;;;20.80;99.90;;;;;;4963150;28;20050;-87
2022/08/15 01:50:12;;;;;;;16.08;10.25;;;20.80;99.90;;;;;;4951115;28;20452;-87
2022/08/15 01:52:55;;;;;;;16.00;10.10;;;20.80;99.90;;;;;;4944006;28;20142;-87
2022/08/15 01:55:26;;;;;;;14.25;9.60;;;20.70;99.90;;;;;;4950336;28;20089;-86
2022/08/15 01:57:52;;;;;;;13.68;9.98;;;20.80;99.90;;;;;;4951519;28;20039;-86
2022/08/15 02:00:20;;;;;;;13.60;9.23;;;20.80;99.90;;;;;;4946926;28;20039;-86
2022/08/15 02:02:46;;;;;;;13.07;9.35;;;20.80;99.90;;;;;;4951470;28;20412;-86
2022/08/15 02:05:11;;;;;;;14.82;10.25;;;20.80;99.90;;;;;;4959794;28;20047;-86
2022/08/15 02:07:38;;;;;;;13.85;9.85;;;20.80;99.90;;;;;;4946837;28;20038;-87
2022/08/15 02:10:05;;;;;;;14.55;10.05;;;20.80;99.90;;;;;;4952473;28;20077;-87
2022/08/15 02:12:34;;;;;;;16.63;10.63;;;20.80;99.90;;;;;;4964752;28;20034;-87
2022/08/15 02:15:03;;;;;;;14.50;10.38;;;20.80;99.90;;;;;;4965151;28;20060;-86
2022/08/15 02:17:29;;;;;;;15.30;10.07;;;20.80;99.90;;;;;;4949281;28;20463;-86
2022/08/15 02:19:55;;;;;;;16.52;10.70;;;20.80;99.90;;;;;;4969100;28;20050;-87
2022/08/15 02:22:23;;;;;;;15.98;11.35;;;20.80;99.90;;;;;;4953452;28;20571;-87
2022/08/15 02:24:49;;;;;;;13.98;10.07;;;20.80;99.90;;;;;;4953989;28;20496;-87
2022/08/15 02:27:16;;;;;;;16.00;10.32;;;20.80;99.90;;;;;;4968975;28;20138;-87
2022/08/15 02:29:42;;;;;;;15.80;10.40;;;20.80;99.90;;;;;;4951998;28;20049;-86
2022/08/15 02:32:14;;;;;;;14.82;10.50;;;20.80;99.90;;;;;;4967908;28;20074;-86
2022/08/15 02:34:43;;;;;;;15.93;11.15;;;20.80;99.90;;;;;;4964692;28;20046;-87
2022/08/15 02:37:11;;;;;;;13.48;10.55;;;20.80;99.90;;;;;;4949078;28;20042;-87
2022/08/15 02:39:39;;;;;;;16.35;10.85;;;20.80;99.90;;;;;;4942865;28;20043;-87
2022/08/15 02:42:05;;;;;;;15.80;10.63;;;20.80;99.90;;;;;;4949005;28;20051;-86
2022/08/15 02:44:31;;;;;;;14.50;11.00;;;20.80;99.90;;;;;;4961148;28;20090;-86
2022/08/15 02:46:57;;;;;;;15.00;11.05;;;20.80;99.90;;;;;;4932888;28;20046;-87
2022/08/15 02:49:24;;;;;;;28.05;11.00;;;20.80;99.90;;;;;;4934817;28;20043;-87
2022/08/15 02:51:51;;;;;;;14.90;10.68;;;20.80;99.90;;;;;;4949082;28;20047;-86
2022/08/15 02:54:19;;;;;;;16.23;10.73;;;20.80;99.90;;;;;;4952893;28;20039;-86
2022/08/15 02:56:45;;;;;;;14.77;10.30;;;20.80;99.90;;;;;;4952959;28;20046;-87
2022/08/15 02:59:11;;;;;;;14.60;10.45;;;20.80;99.90;;;;;;4969388;28;20412;-86
2022/08/15 03:01:40;;;;;;;13.85;10.50;;;20.80;99.90;;;;;;4965185;28;20043;-87
2022/08/15 03:04:16;;;;;;;14.02;10.20;;;20.80;99.90;;;;;;4939375;28;20073;-86
2022/08/15 03:06:43;;;;;;;15.43;10.43;;;20.80;99.90;;;;;;4991782;28;20516;-86
2022/08/15 03:09:11;;;;;;;15.48;10.82;;;20.70;99.90;;;;;;4961316;28;20043;-86
2022/08/15 03:11:40;;;;;;;14.98;10.15;;;20.70;99.90;;;;;;4964137;28;20507;-86
2022/08/15 03:14:07;;;;;;;14.32;10.80;;;20.80;99.90;;;;;;4951755;28;20137;-86
2022/08/15 03:16:42;;;;;;;14.93;10.75;;;20.70;99.90;;;;;;4963539;28;20082;-87
2022/08/15 03:19:08;;;;;;;13.88;10.38;;;20.70;99.90;;;;;;4938020;28;20445;-86
2022/08/15 03:21:36;;;;;;;14.13;10.23;;;20.70;99.90;;;;;;4951318;28;20039;-86
2022/08/15 03:24:02;;;;;;;14.48;9.80;;;20.70;99.90;;;;;;4953481;28;20043;-86
2022/08/15 03:26:29;;;;;;;15.15;10.63;;;20.70;99.90;;;;;;4965783;28;20063;-86
2022/08/15 03:28:55;;;;;;;13.57;9.15;;;20.80;99.90;;;;;;4964428;28;20070;-86
2022/08/15 03:31:21;;;;;;;14.50;10.70;;;20.70;99.90;;;;;;4964896;28;20137;-86
2022/08/15 03:33:47;;;;;;;14.48;10.00;;;20.80;99.90;;;;;;4967050;28;20035;-86
2022/08/15 03:36:17;;;;;;;15.00;10.90;;;20.80;99.90;;;;;;4937708;28;20443;-86
2022/08/15 03:38:45;;;;;;;15.85;10.52;;;20.80;99.90;;;;;;4957258;28;20070;-86
2022/08/15 03:41:13;;;;;;;14.35;10.85;;;20.70;99.90;;;;;;4933954;28;20045;-86
2022/08/15 03:43:40;;;;;;;14.38;10.40;;;20.70;99.90;;;;;;4949830;28;20403;-86
2022/08/15 03:46:10;;;;;;;16.50;10.93;;;20.70;99.90;;;;;;4967075;28;20073;-86
2022/08/15 03:48:40;;;;;;;15.68;10.73;;;20.70;99.90;;;;;;4967539;28;20047;-86
2022/08/15 03:51:08;;;;;;;15.18;10.95;;;20.70;99.90;;;;;;4981279;28;20077;-86
2022/08/15 03:53:43;;;;;;;16.95;10.88;;;20.60;99.90;;;;;;4966670;28;20043;-86
2022/08/15 03:56:09;;;;;;;16.10;10.52;;;20.60;99.90;;;;;;4967579;28;20059;-86
2022/08/15 03:58:35;;;;;;;12.95;9.77;;;20.60;99.90;;;;;;4945276;28;20042;-86
2022/08/15 04:01:01;;;;;;;13.57;10.40;;;20.50;99.90;;;;;;4942858;29;20043;-86
2022/08/15 04:03:29;;;;;;;15.88;10.85;;;20.50;99.90;;;;;;4966127;28;20077;-86
2022/08/15 04:05:58;;;;;;;14.85;10.57;;;20.50;99.90;;;;;;4967232;28;20050;-86
2022/08/15 04:08:25;;;;;;;13.93;10.65;;;20.50;99.90;;;;;;4948267;28;20118;-86
2022/08/15 04:10:52;;;;;;;14.85;10.68;;;20.50;99.90;;;;;;4968529;28;20093;-86
2022/08/15 04:13:24;;;;;;;15.23;10.73;;;20.40;99.90;;;;;;4963971;28;20043;-86
2022/08/15 04:15:51;;;;;;;15.80;11.25;;;20.40;99.90;;;;;;4978001;28;20400;-86
2022/08/15 04:18:17;;;;;;;17.55;12.30;;;20.30;99.90;;;;;;4967198;28;20047;-86
2022/08/15 04:20:42;;;;;;;18.70;12.45;;;20.30;99.90;;;;;;4963563;28;20050;-86
2022/08/15 04:23:08;;;;;;;17.60;12.50;;;20.20;99.90;;;;;;4947980;28;20053;-86
2022/08/15 04:25:37;;;;;;;18.48;12.75;;;20.10;99.90;;;;;;4932657;29;20078;-86
2022/08/15 04:28:03;;;;;;;16.70;12.70;;;20.10;99.90;;;;;;4954553;28;20313;-86
2022/08/15 04:30:36;;;;;;;16.13;11.93;;;20.10;99.90;;;;;;4949717;28;20480;-86
2022/08/15 04:33:15;;;;;;;16.08;11.63;;;20.00;99.90;;;;;;4948219;28;20075;-86
2022/08/15 04:35:43;;;;;;;15.50;11.82;;;20.00;99.90;;;;;;4949698;28;20126;-86
2022/08/15 04:38:09;;;;;;;17.25;12.65;;;20.00;99.90;;;;;;4973746;28;20053;-86
2022/08/15 04:40:36;;;;;;;17.10;12.75;;;20.00;99.90;;;;;;4963544;28;20684;-86
2022/08/15 04:43:02;;;;;;;17.50;12.30;;;20.00;99.90;;;;;;4945503;28;20389;-86
2022/08/15 04:45:32;;;;;;;17.27;12.60;;;20.00;99.90;;;;;;4950658;28;20432;-86
2022/08/15 04:48:02;;;;;;;19.67;13.30;;;20.00;99.90;;;;;;4969711;28;20042;-87
2022/08/15 04:50:30;;;;;;;16.05;12.05;;;19.90;99.90;;;;;;4949401;28;20466;-86
2022/08/15 04:52:58;;;;;;;18.25;13.43;;;19.90;99.90;;;;;;4966756;28;20073;-87
2022/08/15 04:55:25;;;;;;;17.58;13.27;;;19.90;99.90;;;;;;4966811;28;20431;-86
2022/08/15 04:57:52;;;;;;;17.08;13.38;;;19.90;99.90;;;;;;4961014;28;20169;-86
2022/08/15 05:00:21;;;;;;;18.00;14.05;;;20.00;99.90;;;;;;4968013;28;20046;-86
2022/08/15 05:03:06;;;;;;;16.25;13.13;;;20.00;99.90;;;;;;4953239;28;20069;-86
2022/08/15 05:05:37;;;;;;;17.38;13.30;;;20.00;99.90;;;;;;4975881;28;20050;-86
2022/08/15 05:08:02;;;;;;;19.92;13.05;;;20.00;99.90;;;;;;4951312;28;20525;-86
2022/08/15 05:10:28;;;;;;;16.55;13.05;;;20.00;99.90;;;;;;4987727;28;20035;-85
2022/08/15 05:12:54;;;;;;;19.42;13.80;;;20.00;99.90;;;;;;4955241;28;20046;-86
2022/08/15 05:15:21;;;;;;;17.30;13.52;;;20.10;99.90;;;;;;4954678;28;20051;-86
2022/08/15 05:17:48;;;;;;;16.40;12.68;;;20.10;99.90;;;;;;4986482;28;20118;-86
2022/08/15 05:20:17;;;;;;;19.38;13.15;;;20.10;99.90;;;;;;4971291;28;20049;-86
2022/08/15 05:23:01;;;;;;;17.05;13.00;;;20.20;99.90;;;;;;4955184;28;20471;-86
2022/08/15 05:25:28;;;;;;;17.23;13.55;;;20.30;99.90;;;;;;4970769;28;20121;-86
2022/08/15 05:27:54;;;;;;;17.63;13.70;;;20.30;99.90;;;;;;4952078;28;20047;-86
2022/08/15 05:30:22;;;;;;;16.70;12.90;;;20.30;99.90;;;;;;4948963;28;20035;-86
2022/08/15 05:32:59;;;;;;;19.52;14.05;;;20.30;99.90;;;;;;4971267;28;20125;-86
2022/08/15 05:35:25;;;;;;;18.90;13.95;;;20.40;99.90;;;;;;4949924;28;20043;-86
2022/08/15 05:37:51;;;;;;;16.42;12.65;;;20.40;99.90;;;;;;4968622;28;20109;-86
2022/08/15 05:40:17;;;;;;;17.25;13.30;;;20.40;99.90;;;;;;4941916;28;20039;-86
2022/08/15 05:43:11;;;;;;;17.45;13.02;;;20.50;99.90;;;;;;4949257;28;20042;-86
2022/08/15 05:45:55;;;;;;;20.77;14.55;;;20.50;99.90;;;;;;4968295;28;20030;-86
2022/08/15 05:48:31;;;;;;;18.02;14.20;;;20.50;99.90;;;;;;4952821;28;20243;-86
2022/08/15 05:51:06;;;;;;;17.65;14.00;;;20.50;99.90;;;;;;4969225;28;20100;-86
2022/08/15 05:53:45;;;;;;;19.73;14.57;;;20.60;99.90;;;;;;4968706;28;20431;-85
2022/08/15 05:56:24;;;;;;;17.80;14.18;;;20.60;99.90;;;;;;4984117;28;20526;-86
2022/08/15 05:58:59;;;;;;;17.40;13.80;;;20.60;99.90;;;;;;4965000;28;20050;-86
2022/08/15 06:01:36;;;;;;;18.48;13.95;;;20.70;99.90;;;;;;4950577;28;20498;-86
2022/08/15 06:04:09;;;;;;;18.70;14.32;;;20.70;99.90;;;;;;4965311;28;20364;-91
2022/08/15 06:06:38;;;;;;;18.77;14.60;;;20.70;99.90;;;;;;4948068;28;20458;-87
2022/08/15 06:09:39;;;;;;;17.98;14.70;;;20.70;99.90;;;;;;4964616;28;20162;-86
2022/08/15 06:12:09;;;;;;;16.40;13.45;;;20.70;99.90;;;;;;4960129;28;20085;-86
2022/08/15 06:14:40;;;;;;;20.40;14.10;;;20.80;99.90;;;;;;4966722;28;20046;-86
2022/08/15 06:17:19;;;;;;;17.40;14.25;;;20.90;99.90;;;;;;4948336;28;20046;-87
2022/08/15 06:19:59;;;;;;;;;;;;;;;;;;;;;
2022/08/15 06:22:43;;;;;;;19.08;14.43;;;20.90;99.90;;;;;;4961843;28;20047;-88
2022/08/15 06:25:24;;;;;;;17.80;13.07;;;20.90;99.90;;;;;;4958451;28;20042;-86
2022/08/15 06:28:16;;;;;;;18.00;13.30;;;21.00;99.90;;;;;;4980724;28;20597;-88
2022/08/15 06:31:13;;;;;;;16.63;13.48;;;21.00;99.90;;;;;;4964018;28;20070;-86
2022/08/15 06:34:01;;;;;;;19.00;14.07;;;21.10;99.90;;;;;;4965458;28;20047;-87
2022/08/15 06:36:43;;;;;;;19.45;14.02;;;21.10;99.90;;;;;;4964377;28;20113;-86
2022/08/15 06:39:35;;;;;;;19.02;13.93;;;21.20;99.90;;;;;;4952359;28;20044;-86
2022/08/15 06:42:25;;;;;;;17.63;13.55;;;21.20;99.90;;;;;;4964951;28;20043;-89
2022/08/15 06:44:57;;;;;;;20.77;15.07;;;21.20;99.90;;;;;;4963135;28;20273;-88
2022/08/15 06:47:23;;;;;;;19.42;14.10;;;21.30;99.90;;;;;;4957256;28;20113;-89
2022/08/15 06:49:58;;;;;;;18.75;14.18;;;21.30;99.90;;;;;;4964806;28;20043;-87
2022/08/15 06:52:26;;;;;;;19.30;14.70;;;21.30;99.90;;;;;;4982012;28;20046;-87
2022/08/15 06:54:52;;;;;;;18.52;14.65;;;21.40;99.90;;;;;;4969207;28;20525;-87
2022/08/15 06:57:33;;;;;;;17.30;13.45;;;21.40;99.90;;;;;;4952402;28;20121;-87
2022/08/15 07:00:15;;;;;;;16.77;12.88;;;21.60;99.90;;;;;;4963731;28;20049;-87
2022/08/15 07:03:25;;;;;;;18.02;12.50;;;21.80;99.90;;;;;;4967220;28;20465;-86
2022/08/15 07:05:57;;;;;;;20.30;13.13;;;22.10;99.90;;;;;;4887888;29;20060;-88
2022/08/15 07:08:55;;;;;;;16.30;12.63;;;22.30;99.90;;;;;;4954488;28;20083;-88
2022/08/15 07:11:27;;;;;;;17.30;12.23;;;22.50;99.90;;;;;;4956331;28;20043;-89
2022/08/15 07:17:12;;;;;;;17.63;12.15;;;22.90;99.90;;;;;;4967487;28;20050;-92
2022/08/15 07:19:38;;;;;;;19.10;11.65;;;22.50;99.90;;;;;;4965062;28;20526;-88
2022/08/15 07:22:16;;;;;;;;;;;;;;;;;;;;;
2022/08/15 07:24:53;;;;;;;15.57;10.88;;;23.60;99.90;;;;;;4981451;28;20046;-88
2022/08/15 07:27:30;;;;;;;15.52;10.32;;;23.30;99.90;;;;;;4952804;28;20043;-88
2022/08/15 07:30:16;;;;;;;14.63;10.80;;;23.70;99.90;;;;;;4965164;28;20467;-88
2022/08/15 07:33:03;;;;;;;16.60;11.35;;;23.70;99.90;;;;;;4963576;28;20122;-87
2022/08/15 07:35:34;;;;;;;16.05;10.57;;;23.70;99.90;;;;;;4966949;28;20049;-88
2022/08/15 07:38:07;;;;;;;15.90;10.55;;;23.80;99.90;;;;;;4969039;28;20091;-88
2022/08/15 07:40:44;;;;;;;14.80;9.98;;;23.90;99.90;;;;;;4973988;28;20046;-89
2022/08/15 07:43:30;;;;;;;15.77;10.07;;;24.00;99.90;;;;;;4952417;28;20050;-87
2022/08/15 07:46:16;;;;;;;15.55;9.68;;;24.10;99.90;;;;;;4960717;28;20039;-87
2022/08/15 07:48:53;;;;;;;13.23;8.80;;;24.30;99.90;;;;;;4967454;28;20042;-87
2022/08/15 07:51:39;;;;;;;12.80;8.45;;;25.10;99.90;;;;;;4951443;28;20083;-86
2022/08/15 07:54:19;;;;;;;12.02;7.78;;;24.70;99.90;;;;;;4967040;28;20031;-87
2022/08/15 07:56:58;;;;;;;13.88;8.10;;;24.70;99.90;;;;;;4967910;28;20399;-87
2022/08/15 07:59:30;;;;;;;11.88;7.53;;;24.80;99.90;;;;;;4965420;28;20146;-91
2022/08/15 08:02:24;;;;;;;11.40;7.70;;;24.90;99.90;;;;;;4961551;28;20041;-89
2022/08/15 08:04:50;;;;;;;11.13;7.70;;;24.90;99.90;;;;;;4950825;28;20054;-87
2022/08/15 08:07:29;;;;;;;10.55;6.53;;;25.00;99.90;;;;;;4933821;28;20623;-89
2022/08/15 08:10:24;;;;;;;13.10;7.22;;;25.10;99.90;;;;;;4967513;28;20042;-90
2022/08/15 08:13:04;;;;;;;11.70;7.15;;;25.20;99.90;;;;;;4979620;28;20053;-89
2022/08/15 08:15:57;;;;;;;11.32;7.00;;;25.30;99.90;;;;;;4954538;28;20501;-87
2022/08/15 08:18:41;;;;;;;13.82;6.82;;;25.40;99.90;;;;;;4950056;28;20057;-87
2022/08/15 08:21:13;;;;;;;12.90;6.63;;;25.40;99.90;;;;;;4972034;28;20101;-89
2022/08/15 08:23:46;;;;;;;11.40;6.10;;;25.30;99.90;;;;;;4972743;28;20053;-87
2022/08/15 08:26:30;;;;;;;11.70;6.45;;;25.40;99.90;;;;;;4969010;28;20039;-88
2022/08/15 08:29:33;;;;;;;10.40;6.07;;;25.40;99.90;;;;;;4965528;28;20041;-87
2022/08/15 08:32:07;;;;;;;12.52;7.15;;;25.60;99.90;;;;;;4969904;28;20186;-88
2022/08/15 08:34:41;;;;;;;14.50;7.60;;;25.70;99.90;;;;;;4989818;28;20515;-89
2022/08/15 08:37:26;;;;;;;13.25;7.28;;;25.70;99.90;;;;;;4963371;28;20046;-89
2022/08/15 08:43:09;;;;;;;12.05;7.07;;;25.70;99.90;;;;;;4967290;28;20042;-88
2022/08/15 08:45:47;;;;;;;12.25;7.38;;;25.80;99.90;;;;;;4948004;28;20073;-89
2022/08/15 08:48:41;;;;;;;11.38;7.22;;;25.80;99.90;;;;;;4966297;28;20042;-90
2022/08/15 08:51:44;;;;;;;12.30;7.35;;;25.90;99.90;;;;;;4966901;28;20047;-90
2022/08/15 08:54:19;;;;;;;10.73;6.57;;;26.00;99.90;;;;;;4961298;28;20039;-89
2022/08/15 08:56:50;;;;;;;12.50;6.25;;;26.10;99.90;;;;;;4968969;28;20065;-88
2022/08/15 08:59:26;;;;;;;11.65;6.72;;;26.20;99.90;;;;;;4971141;28;20046;-90
2022/08/15 09:02:07;;;;;;;;;;;;;;;;;;;;;
2022/08/15 09:04:49;;;;;;;11.57;6.95;;;26.40;99.90;;;;;;4971581;28;20061;-88
2022/08/15 09:07:22;;;;;;;11.38;6.07;;;26.10;99.90;;;;;;4963062;28;20424;-89
2022/08/15 09:09:50;;;;;;;12.68;6.35;;;26.60;99.90;;;;;;4985568;28;20034;-86
2022/08/15 09:15:18;;;;;;;10.27;5.78;;;27.00;99.90;;;;;;4965896;28;20439;-87
2022/08/15 09:17:52;;;;;;;10.63;5.40;;;27.20;99.90;;;;;;4976171;28;20181;-88
2022/08/15 09:20:36;;;;;;;9.63;4.97;;;27.40;99.90;;;;;;4949818;28;20158;-88
2022/08/15 09:23:21;;;;;;;9.70;5.07;;;27.50;99.90;;;;;;4968271;28;20125;-88
2022/08/15 09:26:16;;;;;;;9.70;4.68;;;27.60;99.90;;;;;;4949819;28;20538;-89
2022/08/15 09:29:00;;;;;;;9.52;4.53;;;27.80;99.90;;;;;;4955757;28;20042;-89
2022/08/15 09:31:30;;;;;;;13.13;4.88;;;27.90;99.90;;;;;;4969613;28;20043;-89
2022/08/15 09:34:28;;;;;;;9.10;4.30;;;27.90;99.90;;;;;;4963937;28;20045;-87
2022/08/15 09:37:12;;;;;;;9.10;4.60;;;28.10;99.90;;;;;;4919999;28;20570;-90
2022/08/15 09:39:43;;;;;;;9.70;4.65;;;28.20;99.90;;;;;;4969440;28;20110;-88
2022/08/15 09:42:15;;;;;;;10.73;4.18;;;28.30;99.90;;;;;;4968655;28;20118;-87
2022/08/15 09:44:44;;;;;;;10.68;4.75;;;28.40;99.90;;;;;;4979404;28;20407;-87
2022/08/15 09:47:16;;;;;;;8.95;4.25;;;28.60;99.90;;;;;;4971172;28;20042;-88
2022/08/15 09:49:45;;;;;;;9.60;4.50;;;28.80;99.90;;;;;;4953075;28;20512;-87
2022/08/15 09:52:37;;;;;;;8.93;4.55;;;28.90;99.90;;;;;;4952789;28;20046;-89
2022/08/15 09:55:49;;;;;;;8.35;4.47;;;29.00;99.90;;;;;;4954679;28;20050;-88
2022/08/15 09:58:19;;;;;;;8.93;4.85;;;29.10;99.90;;;;;;4967659;28;20051;-88
2022/08/15 10:00:52;;;;;;;9.80;4.85;;;29.10;99.90;;;;;;4971537;28;20084;-88
2022/08/15 10:03:43;;;;;;;9.25;5.20;;;29.20;99.90;;;;;;4947843;28;20102;-88
2022/08/15 10:06:23;;;;;;;9.40;5.22;;;29.20;99.90;;;;;;4954276;28;20073;-90
2022/08/15 10:08:57;;;;;;;9.45;5.50;;;29.20;99.90;;;;;;4959586;28;20487;-89
2022/08/15 10:11:39;;;;;;;11.18;5.55;;;29.20;99.90;;;;;;4968976;28;20039;-92
2022/08/15 10:14:39;;;;;;;9.52;5.10;;;29.20;99.90;;;;;;4963647;28;20035;-90
2022/08/15 10:17:37;;;;;;;9.32;5.50;;;29.10;99.90;;;;;;4962328;28;20039;-90
2022/08/15 10:20:15;;;;;;;9.85;5.13;;;29.10;99.90;;;;;;4965842;28;20488;-88
2022/08/15 10:22:59;;;;;;;9.80;5.60;;;29.10;99.90;;;;;;4968724;28;20178;-89
2022/08/15 10:25:25;;;;;;;9.50;5.50;;;29.10;99.90;;;;;;4966967;28;20035;-89
2022/08/15 10:28:13;;;;;;;10.38;5.47;;;29.10;99.90;;;;;;4984568;28;20038;-89
2022/08/15 10:30:44;;;;;;;9.65;5.35;;;29.10;99.90;;;;;;4983045;28;20542;-89
2022/08/15 10:33:36;;;;;;;9.05;5.10;;;29.20;99.90;;;;;;4953478;28;20105;-89
2022/08/15 10:36:14;;;;;;;9.07;4.70;;;29.20;99.90;;;;;;4969561;28;20617;-89
2022/08/15 10:39:03;;;;;;;11.18;5.20;;;29.20;99.90;;;;;;4974447;28;20492;-88
2022/08/15 10:41:36;;;;;;;11.57;5.75;;;29.30;99.90;;;;;;4942421;28;20046;-89
2022/08/15 10:44:21;;;;;;;10.77;5.65;;;29.20;99.90;;;;;;4969907;28;20057;-89
2022/08/15 10:47:08;;;;;;;9.73;5.13;;;29.10;99.90;;;;;;4964442;28;20126;-89
2022/08/15 10:49:55;;;;;;;11.40;5.53;;;29.10;99.90;;;;;;4970606;28;20100;-90
2022/08/15 10:52:47;;;;;;;9.38;5.40;;;29.10;99.90;;;;;;4939344;28;20126;-89
2022/08/15 10:55:27;;;;;;;9.30;5.03;;;29.00;99.90;;;;;;4968685;28;20049;-89
2022/08/15 10:58:01;;;;;;;11.40;5.18;;;28.90;99.90;;;;;;4984629;28;20039;-89
2022/08/15 11:00:33;;;;;;;10.02;5.30;;;28.90;99.90;;;;;;4969063;28;20446;-88
2022/08/15 11:03:05;;;;;;;13.18;5.80;;;28.90;99.90;;;;;;4981127;28;20078;-88
2022/08/15 11:05:31;;;;;;;11.00;5.47;;;28.90;99.90;;;;;;4968122;28;20050;-90
2022/08/15 11:07:57;;;;;;;10.65;5.50;;;29.00;99.90;;;;;;4980283;28;20034;-92
2022/08/15 11:10:29;;;;;;;11.13;6.10;;;29.00;99.90;;;;;;4965460;28;20136;-89
2022/08/15 11:13:05;;;;;;;10.98;5.93;;;29.20;99.90;;;;;;4948677;28;20046;-88
2022/08/15 11:15:45;;;;;;;11.90;5.50;;;29.30;99.90;;;;;;4954108;28;20444;-88
2022/08/15 11:18:11;;;;;;;10.05;5.70;;;29.30;99.90;;;;;;4966131;28;20046;-88
2022/08/15 11:20:52;;;;;;;10.02;5.28;;;29.40;99.90;;;;;;4970194;28;20349;-88
2022/08/15 11:23:36;;;;;;;14.32;6.05;;;29.40;99.90;;;;;;4966670;28;20042;-89
2022/08/15 11:26:03;;;;;;;10.57;5.80;;;29.30;99.90;;;;;;4980334;28;20105;-88
2022/08/15 11:28:30;;;;;;;13.10;6.22;;;29.10;99.90;;;;;;4951265;28;20047;-89
2022/08/15 11:31:12;;;;;;;11.27;6.75;;;29.00;99.90;;;;;;4966785;28;20381;-88
2022/08/15 11:33:41;;;;;;;12.37;7.53;;;28.80;99.90;;;;;;4965758;28;20050;-90
2022/08/15 11:36:21;;;;;;;14.65;8.90;;;28.60;99.90;;;;;;4963519;28;20047;-89
2022/08/15 11:39:14;;;;;;;14.57;8.80;;;28.30;99.90;;;;;;4967193;28;20046;-91
2022/08/15 11:41:49;;;;;;;15.32;8.77;;;28.00;99.90;;;;;;4963464;28;20070;-88
2022/08/15 11:44:15;;;;;;;15.57;9.50;;;27.80;99.90;;;;;;4955353;28;20122;-92
2022/08/15 11:46:48;;;;;;;14.10;8.27;;;27.60;99.90;;;;;;4945167;28;20066;-92
2022/08/15 11:49:31;;;;;;;12.40;8.90;;;27.40;99.90;;;;;;4945915;28;20052;-90
2022/08/15 11:52:25;;;;;;;12.68;8.95;;;27.30;99.90;;;;;;4984163;28;20467;-90
2022/08/15 11:55:13;;;;;;;12.98;8.48;;;27.30;99.90;;;;;;4955573;28;20043;-89
2022/08/15 11:57:46;;;;;;;15.73;9.23;;;27.20;99.90;;;;;;4972052;28;20039;-90
2022/08/15 12:00:22;;;;;;;13.07;8.55;;;27.10;99.90;;;;;;4966945;28;20053;-90
2022/08/15 12:02:49;;;;;;;15.00;8.77;;;27.00;99.90;;;;;;4967526;28;20442;-89
2022/08/15 12:05:24;;;;;;;14.10;8.63;;;27.00;99.90;;;;;;4950195;28;20506;-89
2022/08/15 12:07:54;;;;;;;12.88;8.85;;;26.90;99.90;;;;;;4965319;28;20061;-89
2022/08/15 12:10:30;;;;;;;14.73;8.15;;;26.80;99.90;;;;;;4966389;28;20224;-87
2022/08/15 12:12:56;;;;;;;14.65;8.85;;;26.70;99.90;;;;;;4953951;28;20038;-89
2022/08/15 12:15:37;;;;;;;12.93;8.25;;;26.70;99.90;;;;;;4953461;28;20041;-90
2022/08/15 12:18:17;;;;;;;12.00;8.18;;;26.70;99.90;;;;;;4956432;28;20053;-89
2022/08/15 12:21:04;;;;;;;12.27;8.55;;;26.70;99.90;;;;;;4984184;28;20408;-89
2022/08/15 12:23:35;;;;;;;11.90;7.25;;;26.80;99.90;;;;;;4969876;28;20046;-88
2022/08/15 12:26:10;;;;;;;13.35;7.55;;;26.80;99.90;;;;;;4963986;28;20507;-90
2022/08/15 12:28:44;;;;;;;11.95;7.47;;;26.90;99.90;;;;;;4953541;28;20085;-90
2022/08/15 12:31:27;;;;;;;12.50;7.32;;;26.90;99.90;;;;;;4966123;28;20093;-89
2022/08/15 12:34:02;;;;;;;12.15;7.68;;;27.00;99.90;;;;;;4982478;28;20046;-89
2022/08/15 12:36:31;;;;;;;11.75;7.97;;;27.00;99.90;;;;;;4967968;28;20089;-88
2022/08/15 12:38:57;;;;;;;13.82;7.30;;;27.00;99.90;;;;;;4961482;28;20446;-90
2022/08/15 12:41:24;;;;;;;16.17;7.93;;;27.00;99.90;;;;;;4951947;29;20819;-88
2022/08/15 12:43:50;;;;;;;13.02;7.00;;;27.00;99.90;;;;;;4986803;28;20057;-90
2022/08/15 12:46:16;;;;;;;13.05;7.60;;;26.90;99.90;;;;;;4948293;29;20039;-88
2022/08/15 12:48:43;;;;;;;13.07;6.97;;;26.90;99.90;;;;;;4950146;28;20404;-89
2022/08/15 12:51:09;;;;;;;12.38;6.50;;;26.90;99.90;;;;;;4967636;28;20043;-89
2022/08/15 12:53:38;;;;;;;11.80;6.80;;;26.90;99.90;;;;;;4952100;28;20035;-90
2022/08/15 12:56:07;;;;;;;13.98;7.55;;;26.90;99.90;;;;;;4952292;28;20514;-90
2022/08/15 12:58:34;;;;;;;12.45;7.15;;;26.90;99.90;;;;;;4967737;28;20047;-87
2022/08/15 13:01:00;;;;;;;15.25;6.90;;;26.90;99.90;;;;;;4946882;28;20039;-88
2022/08/15 13:03:28;;;;;;;11.85;6.85;;;26.90;99.90;;;;;;4948710;28;20491;-88
2022/08/15 13:06:29;;;;;;;11.00;6.85;;;26.90;99.90;;;;;;4971389;28;20118;-88
2022/08/15 13:08:55;;;;;;;12.15;7.03;;;27.10;99.90;;;;;;4927310;28;20480;-91
2022/08/15 13:11:21;;;;;;;11.45;7.07;;;27.20;99.90;;;;;;4973608;28;20062;-90
2022/08/15 13:13:48;;;;;;;11.80;6.93;;;27.20;99.90;;;;;;4950438;28;20484;-89
2022/08/15 13:16:13;;;;;;;12.07;7.22;;;27.30;99.90;;;;;;4952233;28;20134;-92
2022/08/15 13:18:39;;;;;;;11.40;6.97;;;27.30;99.90;;;;;;4932819;28;20133;-90
2022/08/15 13:23:53;;;;;;;10.57;6.38;;;27.30;99.90;;;;;;4952561;28;20094;-92
2022/08/15 13:26:22;;;;;;;11.88;6.03;;;27.20;99.90;;;;;;4983288;28;20038;-87
2022/08/15 13:28:50;;;;;;;10.10;6.28;;;27.00;99.90;;;;;;4962509;28;20519;-89